UTTT/TAS METAR and TAF weather

Enter ICAO airport designator
Station Type Date Time Source
UTTT METAR 2019/05/21 20:30 UTC NOAA

UTTT 212030Z VRB02KT CAVOK 20/13 Q1011 R08R/CLRD70 NOSIG


Station Type Date Time Source
UTTT Decoded METAR 2019/05/21 20:30 UTC NOAA

Tashkent, Uzbekistan (UTTT) 41-16N 069-16E 488M
May 21, 2019 - 04:30 PM EDT / 2019.05.21 2030 UTC
Wind: Variable at 2 MPH (2 KT):0
Visibility: greater than 7 mile(s):0
Temperature: 68 F (20 C)
Dew Point: 55 F (13 C)
Relative Humidity: 64%
Pressure (altimeter): 29.85 in. Hg (1011 hPa)
ob: UTTT 212030Z VRB02KT CAVOK 20/13 Q1011 R08R/CLRD70 NOSIG
cycle: 20

Station Type Date Time Source
UTTT TAF 2019/05/21 18:10 UTC NOAA

TAF UTTT 211700Z 2118/2218 27012KT 7000 SCT060CB BKN100
TEMPO 2118/2206 VRB15G25KT -TSRA BKN050CB OVC100

Example: see airport list